createdAt,value
2019-01-02T00:00:44.565Z,76.33
2019-01-02T00:03:14.125Z,76.36
2019-01-02T00:05:43.958Z,75.78
2019-01-02T00:08:13.723Z,76.85
2019-01-02T00:10:43.602Z,76.81
2019-01-02T00:13:13.095Z,76.74
2019-01-02T00:15:42.780Z,77.06
2019-01-02T00:18:12.260Z,77.15
2019-01-02T00:20:42.004Z,77.12
2019-01-02T00:23:11.992Z,77.28
2019-01-02T00:25:41.678Z,77.49
2019-01-02T00:28:11.871Z,77.94
2019-01-02T00:30:41.408Z,78.70
2019-01-02T00:33:10.921Z,77.67
2019-01-02T00:35:40.461Z,77.00
2019-01-02T00:38:10.126Z,77.22
2019-01-02T00:40:39.645Z,77.87
2019-01-02T00:43:09.255Z,77.21
2019-01-02T00:45:38.846Z,76.79
2019-01-02T00:48:08.244Z,76.94
2019-01-02T00:50:37.949Z,77.37
2019-01-02T00:53:07.685Z,77.35
2019-01-02T00:55:37.692Z,77.86
2019-01-02T00:58:07.232Z,78.11
2019-01-02T01:00:36.589Z,76.97
2019-01-02T01:03:06.235Z,76.85
2019-01-02T01:05:36.272Z,77.02
2019-01-02T01:08:05.941Z,76.63
2019-01-02T01:10:35.576Z,77.18
2019-01-02T01:13:05.064Z,77.64
2019-01-02T01:15:34.556Z,77.59
2019-01-02T01:18:04.459Z,77.34
2019-01-02T01:20:34.197Z,77.45
2019-01-02T01:23:03.816Z,77.50
2019-01-02T01:25:33.630Z,77.58
2019-01-02T01:28:03.159Z,77.68
2019-01-02T01:30:33.022Z,77.28
2019-01-02T01:33:02.712Z,77.56
2019-01-02T01:35:32.349Z,77.75
2019-01-02T01:38:01.959Z,78.60
2019-01-02T01:40:31.536Z,77.48
2019-01-02T01:43:01.090Z,77.45
2019-01-02T01:45:31.154Z,78.22
2019-01-02T01:48:00.700Z,78.63
2019-01-02T01:50:30.190Z,78.53
2019-01-02T01:53:00.350Z,77.74
2019-01-02T01:55:29.832Z,77.06
2019-01-02T01:57:59.754Z,76.89
2019-01-02T02:00:29.307Z,77.09
2019-01-02T02:02:58.751Z,77.46
2019-01-02T02:05:28.649Z,77.89
2019-01-02T02:07:58.264Z,78.09
2019-01-02T02:10:27.887Z,77.38
2019-01-02T02:12:57.587Z,77.38
2019-01-02T02:15:27.195Z,77.23
2019-01-02T02:17:56.896Z,77.03
2019-01-02T02:20:26.510Z,76.70
2019-01-02T02:22:56.125Z,76.67
2019-01-02T02:25:26.028Z,76.48
2019-01-02T02:27:55.534Z,76.58
2019-01-02T02:30:25.366Z,76.98
2019-01-02T02:32:55.290Z,77.31
2019-01-02T02:35:24.794Z,77.55
2019-01-02T02:37:54.684Z,77.14
2019-01-02T02:40:24.359Z,76.70
2019-01-02T02:42:53.891Z,76.53
2019-01-02T02:45:23.845Z,76.57
2019-01-02T02:47:53.736Z,76.83
2019-01-02T02:50:24.121Z,76.80
2019-01-02T02:52:53.866Z,77.24
2019-01-02T02:55:23.380Z,77.32
2019-01-02T02:57:52.881Z,78.15
2019-01-02T03:00:22.567Z,77.93
2019-01-02T03:02:52.552Z,77.33
2019-01-02T03:05:22.111Z,77.11
2019-01-02T03:07:51.702Z,77.69
2019-01-02T03:10:21.425Z,77.60
2019-01-02T03:12:51.138Z,77.76
2019-01-02T03:15:21.066Z,77.77
2019-01-02T03:17:50.556Z,77.39
2019-01-02T03:20:20.042Z,77.59
2019-01-02T03:22:49.545Z,77.59
2019-01-02T03:25:19.407Z,77.83
2019-01-02T03:27:49.178Z,77.92
2019-01-02T03:30:19.200Z,78.06
2019-01-02T03:32:48.905Z,77.57
2019-01-02T03:35:18.921Z,77.59
2019-01-02T03:37:48.623Z,77.67
2019-01-02T03:40:17.535Z,77.54
2019-01-02T03:42:47.558Z,77.16
2019-01-02T03:45:18.956Z,76.97
2019-01-02T03:47:48.407Z,77.44
2019-01-02T03:50:21.066Z,77.53
2019-01-02T03:52:50.692Z,77.86
2019-01-02T03:55:20.074Z,77.62
2019-01-02T03:57:49.624Z,78.03
2019-01-02T04:00:20.529Z,77.66
2019-01-02T04:02:50.267Z,78.11
2019-01-02T04:05:22.333Z,77.90
2019-01-02T04:07:58.151Z,78.06
2019-01-02T04:10:27.661Z,77.81
2019-01-02T04:12:57.162Z,77.68
2019-01-02T04:15:26.678Z,77.75
2019-01-02T04:17:56.285Z,77.73
2019-01-02T04:20:25.789Z,77.28
2019-01-02T04:22:55.520Z,77.46
2019-01-02T04:25:25.108Z,77.54
2019-01-02T04:27:54.622Z,77.91
2019-01-02T04:30:24.226Z,77.84
2019-01-02T04:32:53.809Z,77.49
2019-01-02T04:35:23.668Z,77.64
2019-01-02T04:37:53.335Z,78.08
2019-01-02T04:40:22.758Z,78.03
2019-01-02T04:42:52.274Z,78.80
2019-01-02T04:45:21.918Z,78.54
2019-01-02T04:47:51.501Z,78.49
2019-01-02T04:50:21.010Z,78.69
2019-01-02T04:52:50.626Z,78.59
2019-01-02T04:55:20.352Z,78.68
2019-01-02T04:57:49.499Z,79.03
2019-01-02T05:00:19.282Z,78.40
2019-01-02T05:02:48.899Z,78.68
2019-01-02T05:05:18.037Z,78.47
2019-01-02T05:07:48.411Z,78.48
2019-01-02T05:10:19.911Z,78.99
2019-01-02T05:12:50.748Z,78.93
2019-01-02T05:15:19.677Z,78.68
2019-01-02T05:17:51.827Z,78.67
2019-01-02T05:20:21.155Z,78.93
2019-01-02T05:22:51.132Z,78.75
2019-01-02T05:25:21.037Z,77.97
2019-01-02T05:27:51.509Z,78.11
2019-01-02T05:30:21.613Z,77.77
2019-01-02T05:32:51.655Z,77.99
2019-01-02T05:35:21.288Z,78.53
2019-01-02T05:37:51.172Z,78.51
2019-01-02T05:40:20.739Z,78.44
2019-01-02T05:42:56.551Z,78.46
2019-01-02T05:45:26.401Z,78.88
2019-01-02T05:47:56.290Z,78.97
2019-01-02T05:50:26.033Z,79.00
2019-01-02T05:52:55.824Z,78.60
2019-01-02T05:55:25.748Z,78.48
2019-01-02T05:57:55.628Z,78.35
2019-01-02T06:00:25.445Z,78.95
2019-01-02T06:02:55.300Z,79.10
2019-01-02T06:05:27.983Z,78.96
2019-01-02T06:07:57.548Z,78.82
2019-01-02T06:10:27.552Z,79.07
2019-01-02T06:12:57.046Z,79.29
2019-01-02T06:15:26.674Z,79.42
2019-01-02T06:17:56.201Z,79.77
2019-01-02T06:20:25.670Z,79.54
2019-01-02T06:22:55.237Z,79.50
2019-01-02T06:25:24.605Z,79.45
2019-01-02T06:27:54.075Z,79.47
2019-01-02T06:30:23.495Z,79.23
2019-01-02T06:32:53.271Z,79.21
2019-01-02T06:35:22.963Z,79.11
2019-01-02T06:37:52.914Z,79.25
2019-01-02T06:40:22.454Z,79.37
2019-01-02T06:42:51.919Z,79.40
2019-01-02T06:45:21.871Z,79.36
2019-01-02T06:47:51.361Z,79.74
2019-01-02T06:50:22.220Z,80.29
2019-01-02T06:52:51.825Z,80.64
2019-01-02T06:55:21.175Z,80.40
2019-01-02T06:57:50.694Z,79.92
2019-01-02T07:00:26.479Z,79.71
2019-01-02T07:02:55.922Z,79.49
2019-01-02T07:05:25.252Z,79.60
2019-01-02T07:07:54.545Z,79.29
2019-01-02T07:10:23.944Z,79.12
2019-01-02T07:12:53.624Z,79.11
2019-01-02T07:15:23.646Z,79.19
2019-01-02T07:17:53.285Z,79.44
2019-01-02T07:20:22.784Z,79.69
2019-01-02T07:22:52.198Z,80.11
2019-01-02T07:25:21.808Z,79.95
2019-01-02T07:27:51.396Z,79.26
2019-01-02T07:30:22.108Z,79.26
2019-01-02T07:32:51.556Z,79.57
2019-01-02T07:35:41.928Z,79.52
2019-01-02T07:38:33.204Z,79.92
2019-01-02T07:41:25.177Z,80.21
2019-01-02T07:44:16.131Z,79.97
2019-01-02T07:47:00.395Z,79.59
2019-01-02T07:49:39.192Z,79.74
2019-01-02T07:52:36.348Z,79.67
2019-01-02T07:55:29.793Z,79.49
2019-01-02T08:00:50.277Z,79.55
2019-01-02T08:03:25.379Z,79.64
2019-01-02T08:06:06.482Z,79.73
2019-01-02T08:08:55.474Z,79.73
2019-01-02T08:11:33.874Z,79.89
2019-01-02T08:14:21.857Z,80.27
2019-01-02T08:17:15.043Z,80.09
2019-01-02T08:20:08.590Z,79.54
2019-01-02T08:22:56.301Z,80.10
2019-01-02T08:25:31.314Z,80.18
2019-01-02T08:28:22.189Z,79.96
2019-01-02T08:31:27.884Z,80.37
2019-01-02T08:34:25.834Z,80.83
2019-01-02T08:37:17.765Z,80.59
2019-01-02T08:39:45.959Z,80.63
2019-01-02T08:42:21.536Z,80.53
2019-01-02T08:45:05.926Z,80.31
2019-01-02T08:48:13.169Z,80.37
2019-01-02T08:51:04.591Z,80.39
2019-01-02T08:53:48.474Z,80.52
2019-01-02T08:56:27.111Z,80.69
2019-01-02T08:59:05.303Z,80.71
2019-01-02T09:01:47.229Z,80.87
2019-01-02T09:04:25.597Z,81.02
2019-01-02T09:07:13.392Z,81.29
2019-01-02T09:09:55.599Z,81.68
2019-01-02T09:12:44.681Z,81.35
2019-01-02T09:15:16.905Z,81.16
2019-01-02T09:18:00.913Z,81.47
2019-01-02T09:20:48.659Z,81.40
2019-01-02T09:23:37.351Z,81.13
2019-01-02T09:26:24.720Z,80.77
2019-01-02T09:31:34.071Z,80.35
2019-01-02T09:34:19.182Z,80.24
2019-01-02T09:36:57.120Z,79.97
2019-01-02T09:39:44.534Z,79.73
2019-01-02T09:42:23.236Z,79.73
2019-01-02T09:45:10.726Z,80.04
2019-01-02T09:47:55.788Z,80.83
2019-01-02T09:50:47.553Z,81.55
2019-01-02T09:53:34.719Z,82.24
2019-01-02T09:56:09.566Z,82.00
2019-01-02T09:59:07.827Z,82.44
2019-01-02T10:01:59.511Z,82.71
2019-01-02T10:04:31.556Z,82.73
2019-01-02T10:07:06.239Z,82.54
2019-01-02T10:10:05.430Z,82.66
2019-01-02T10:12:46.714Z,82.51
2019-01-02T10:15:28.083Z,82.86
2019-01-02T10:18:09.603Z,82.70
2019-01-02T10:20:44.386Z,82.88
2019-01-02T10:23:30.850Z,82.77
2019-01-02T10:26:21.689Z,82.99
2019-01-02T10:29:03.203Z,83.15
2019-01-02T10:31:53.894Z,82.96
2019-01-02T10:34:34.984Z,82.97
2019-01-02T10:37:10.251Z,82.66
2019-01-02T10:42:35.989Z,82.15
2019-01-02T10:45:32.359Z,81.91
2019-01-02T10:48:13.628Z,81.69
2019-01-02T10:50:57.481Z,81.15
2019-01-02T10:53:35.940Z,80.39
2019-01-02T10:56:19.682Z,77.94
2019-01-02T10:58:55.076Z,75.66
2019-01-02T11:01:43.664Z,72.07
2019-01-02T11:04:49.585Z,69.40
2019-01-02T11:07:43.026Z,67.58
2019-01-02T11:10:42.537Z,66.74
2019-01-02T11:13:35.884Z,66.58
2019-01-02T11:16:20.274Z,66.13
2019-01-02T11:18:55.338Z,66.29
2019-01-02T11:21:28.429Z,65.43
2019-01-02T11:24:20.027Z,64.40
2019-01-02T11:27:12.207Z,63.66
2019-01-02T11:30:02.757Z,62.98
2019-01-02T11:32:55.053Z,62.30
2019-01-02T11:35:50.697Z,61.71
2019-01-02T11:38:31.621Z,61.92
2019-01-02T11:41:19.231Z,62.16
2019-01-02T11:44:12.129Z,62.41
2019-01-02T11:46:41.718Z,61.25
2019-01-02T11:49:11.016Z,60.62
2019-01-02T11:51:40.528Z,61.25
2019-01-02T11:54:09.674Z,60.17
2019-01-02T11:56:38.995Z,59.59
2019-01-02T11:59:08.589Z,58.10
2019-01-02T12:01:37.433Z,57.59
2019-01-02T12:04:06.542Z,57.10
2019-01-02T12:06:36.446Z,55.86
2019-01-02T12:09:07.556Z,55.08
2019-01-02T12:11:36.714Z,54.88
2019-01-02T12:14:06.203Z,54.97
2019-01-02T12:16:38.410Z,54.18
2019-01-02T12:25:14.727Z,51.45
2019-01-02T12:30:34.756Z,50.69
2019-01-02T12:33:04.448Z,50.69
2019-01-02T12:35:33.821Z,50.92
2019-01-02T12:38:03.188Z,49.61
2019-01-02T12:40:32.551Z,48.94
2019-01-02T12:43:01.969Z,47.73
2019-01-02T12:45:33.809Z,48.08
2019-01-02T12:48:02.909Z,46.29
2019-01-02T12:50:32.319Z,46.58
2019-01-02T12:53:01.628Z,45.97
2019-01-02T12:55:31.260Z,46.21
2019-01-02T12:58:00.753Z,46.62
2019-01-02T13:00:32.223Z,45.91
2019-01-02T13:03:16.835Z,45.91
2019-01-02T13:05:58.544Z,44.42
2019-01-02T13:08:46.064Z,45.30
2019-01-02T13:11:18.189Z,45.18
2019-01-02T13:14:07.169Z,45.00
2019-01-02T13:17:03.424Z,44.43
2019-01-02T13:19:35.637Z,43.69
2019-01-02T13:22:23.089Z,43.81
2019-01-02T13:24:58.069Z,43.63
2019-01-02T13:27:42.481Z,43.32
2019-01-02T13:30:32.920Z,42.36
2019-01-02T13:33:29.492Z,42.90
2019-01-02T13:36:17.328Z,41.53
2019-01-02T13:38:56.734Z,40.73
2019-01-02T13:41:53.432Z,40.51
2019-01-02T13:44:28.373Z,41.61
2019-01-02T13:47:10.824Z,41.94
2019-01-02T13:49:43.215Z,42.03
2019-01-02T13:52:12.830Z,41.13
2019-01-02T13:54:42.401Z,40.59
2019-01-02T13:57:11.938Z,40.84
2019-01-02T13:59:41.652Z,40.73
2019-01-02T14:02:11.390Z,41.17
2019-01-02T14:04:41.922Z,41.18
2019-01-02T14:07:11.513Z,41.80
2019-01-02T14:09:41.005Z,41.32
2019-01-02T14:12:10.463Z,42.41
2019-01-02T14:14:40.007Z,44.19
2019-01-02T14:17:09.391Z,44.51
2019-01-02T14:19:40.139Z,43.88
2019-01-02T14:22:09.671Z,44.70
2019-01-02T14:24:39.223Z,44.94
2019-01-02T14:27:08.833Z,44.40
2019-01-02T14:29:38.432Z,43.35
2019-01-02T14:32:07.870Z,43.78
2019-01-02T14:34:37.415Z,43.58
2019-01-02T14:37:07.007Z,45.05
2019-01-02T14:39:36.453Z,43.82
2019-01-02T14:42:06.009Z,44.19
2019-01-02T14:44:35.597Z,43.84
2019-01-02T14:47:07.848Z,43.81
2019-01-02T14:49:37.394Z,44.23
2019-01-02T14:52:06.867Z,43.43
2019-01-02T14:54:36.422Z,44.14
2019-01-02T14:57:06.005Z,43.52
2019-01-02T14:59:35.579Z,43.90
2019-01-02T15:02:05.189Z,43.49
2019-01-02T15:04:34.784Z,43.69
2019-01-02T15:07:04.391Z,44.26
2019-01-02T15:09:33.738Z,44.86
2019-01-02T15:12:03.167Z,45.45
2019-01-02T15:14:32.702Z,45.12
2019-01-02T15:17:02.353Z,44.14
2019-01-02T15:19:31.909Z,44.46
2019-01-02T15:22:04.857Z,44.66
2019-01-02T15:24:32.612Z,44.28
2019-01-02T15:27:02.197Z,44.65
2019-01-02T15:29:31.721Z,44.52
2019-01-02T15:32:01.329Z,45.22
2019-01-02T15:34:31.075Z,45.53
2019-01-02T15:37:00.621Z,46.22
2019-01-02T15:39:30.283Z,46.29
2019-01-02T15:42:00.230Z,46.87
2019-01-02T15:44:29.673Z,47.00
2019-01-02T15:46:59.303Z,46.70
2019-01-02T15:49:31.077Z,46.86
2019-01-02T15:52:00.579Z,47.03
2019-01-02T15:54:30.009Z,46.76
2019-01-02T15:56:59.442Z,47.19
2019-01-02T15:59:28.965Z,47.42
2019-01-02T16:01:58.548Z,47.57
2019-01-02T16:04:28.319Z,48.24
2019-01-02T16:06:57.874Z,48.94
2019-01-02T16:09:27.501Z,49.32
2019-01-02T16:11:57.115Z,49.62
2019-01-02T16:14:26.878Z,49.62
2019-01-02T16:16:56.421Z,50.41
2019-01-02T16:19:26.094Z,50.91
2019-01-02T16:21:55.607Z,51.31
2019-01-02T16:24:31.404Z,51.60
2019-01-02T16:27:01.358Z,52.07
2019-01-02T16:29:31.266Z,52.57
2019-01-02T16:32:01.112Z,53.08
2019-01-02T16:34:31.092Z,53.50
2019-01-02T16:37:01.077Z,54.04
2019-01-02T16:39:31.016Z,54.51
2019-01-02T16:41:59.552Z,55.08
2019-01-02T16:44:29.449Z,55.44
2019-01-02T16:46:59.139Z,56.22
2019-01-02T16:49:28.806Z,56.75
2019-01-02T16:52:01.038Z,57.23
2019-01-02T16:54:30.366Z,57.87
2019-01-02T16:56:59.859Z,58.56
2019-01-02T16:59:29.377Z,59.04
2019-01-02T17:01:58.337Z,59.80
2019-01-02T17:04:28.030Z,60.35
2019-01-02T17:06:57.875Z,60.78
2019-01-02T17:09:27.231Z,61.20
2019-01-02T17:11:56.991Z,61.94
2019-01-02T17:14:26.401Z,62.58
2019-01-02T17:16:55.789Z,62.95
2019-01-02T17:19:25.322Z,63.21
2019-01-02T17:21:55.142Z,63.71
2019-01-02T17:24:24.694Z,64.39
2019-01-02T17:26:54.205Z,64.63
2019-01-02T17:29:23.947Z,64.90
2019-01-02T17:31:53.306Z,65.50
2019-01-02T17:34:22.822Z,65.97
2019-01-02T17:36:52.370Z,66.29
2019-01-02T17:39:22.059Z,66.65
2019-01-02T17:41:52.122Z,67.04
2019-01-02T17:44:21.847Z,67.60
2019-01-02T17:46:51.683Z,67.95
2019-01-02T17:49:21.096Z,68.28
2019-01-02T17:51:50.999Z,68.17
2019-01-02T17:54:23.158Z,68.49
2019-01-02T17:56:53.213Z,68.38
2019-01-02T17:59:23.190Z,68.49
2019-01-02T18:01:52.336Z,68.50
2019-01-02T18:04:21.808Z,69.10
2019-01-02T18:06:51.393Z,69.10
2019-01-02T18:09:21.041Z,69.37
2019-01-02T18:11:50.656Z,69.72
2019-01-02T18:14:20.697Z,69.80
2019-01-02T18:16:49.953Z,70.26
2019-01-02T18:19:19.040Z,70.49
2019-01-02T18:21:48.382Z,70.90
2019-01-02T18:24:18.654Z,71.17
2019-01-02T18:26:47.719Z,70.74
2019-01-02T18:29:17.382Z,70.97
2019-01-02T18:31:47.004Z,70.74
2019-01-02T18:34:16.149Z,71.32
2019-01-02T18:36:46.261Z,70.51
2019-01-02T18:39:15.918Z,71.31
2019-01-02T18:41:45.512Z,71.63
2019-01-02T18:44:20.411Z,72.03
2019-01-02T18:46:46.895Z,72.46
2019-01-02T18:49:16.692Z,72.50
2019-01-02T18:51:47.933Z,72.34
2019-01-02T18:54:18.018Z,73.63
2019-01-02T18:56:50.264Z,74.51
2019-01-02T18:59:25.466Z,75.18
2019-01-02T19:16:38.874Z,75.98
2019-01-02T19:27:17.565Z,75.29
2019-01-02T19:29:56.694Z,75.39
2019-01-02T19:32:28.714Z,75.49
2019-01-02T19:35:15.805Z,75.91
2019-01-02T19:37:33.354Z,75.37
2019-01-02T19:40:04.744Z,75.02
2019-01-02T19:43:14.413Z,74.73
2019-01-02T20:30:21.899Z,75.17
2019-01-02T20:36:04.813Z,75.84
2019-01-02T20:47:55.254Z,76.08
2019-01-02T20:50:25.993Z,75.22
2019-01-02T20:52:55.968Z,75.51
2019-01-02T20:55:29.933Z,75.92
2019-01-02T20:58:00.330Z,76.69
2019-01-02T21:00:30.337Z,76.24
2019-01-02T22:30:56.876Z,82.16
2019-01-02T22:33:26.952Z,82.43
2019-01-02T22:35:56.859Z,82.14
2019-01-02T22:38:26.989Z,82.02
2019-01-02T22:40:56.751Z,81.46
2019-01-02T22:43:26.452Z,81.26
2019-01-02T22:45:56.380Z,81.40
2019-01-02T22:48:26.207Z,81.25
2019-01-02T22:50:55.884Z,80.76
2019-01-02T22:53:25.692Z,81.09
2019-01-02T22:55:55.405Z,81.02
2019-01-02T22:58:25.368Z,80.98
2019-01-02T23:01:03.300Z,81.01
2019-01-02T23:03:40.950Z,80.96
2019-01-02T23:06:29.466Z,80.79
2019-01-02T23:09:18.471Z,80.22
2019-01-02T23:12:06.424Z,80.00
2019-01-02T23:14:44.331Z,79.46
2019-01-02T23:17:32.505Z,78.88
2019-01-02T23:20:21.442Z,78.22
2019-01-02T23:22:55.020Z,78.13
2019-01-02T23:25:44.824Z,78.40
2019-01-02T23:28:33.050Z,78.68
2019-01-02T23:31:16.571Z,79.31
2019-01-02T23:34:04.612Z,80.21
2019-01-02T23:36:42.244Z,78.67
2019-01-02T23:39:13.645Z,78.82
2019-01-02T23:42:03.540Z,79.11
2019-01-02T23:44:35.028Z,79.86
2019-01-02T23:47:15.503Z,80.83
2019-01-02T23:49:47.019Z,80.56
2019-01-02T23:52:18.397Z,81.23
2019-01-02T23:54:49.660Z,81.51
2019-01-02T23:57:21.171Z,81.98
2019-01-02T23:59:52.471Z,81.95
